sensor_id;sensor_type;location;lat;lon;timestamp;P1;durP1;ratioP1;P2;durP2;ratioP2
22060;SDS011;11194;48.092;-1.382;2024-02-26T00:01:40;1042.68;;;953.63;;
22060;SDS011;11194;48.092;-1.382;2024-02-26T00:04:08;1028.75;;;940.53;;
22060;SDS011;11194;48.092;-1.382;2024-02-26T00:06:34;1019.72;;;931.95;;
22060;SDS011;11194;48.092;-1.382;2024-02-26T00:09:00;1028.75;;;940.58;;
22060;SDS011;11194;48.092;-1.382;2024-02-26T00:11:30;1046.72;;;957.40;;
22060;SDS011;11194;48.092;-1.382;2024-02-26T00:13:56;1035.53;;;947.38;;
22060;SDS011;11194;48.092;-1.382;2024-02-26T00:16:23;1034.25;;;946.30;;
22060;SDS011;11194;48.092;-1.382;2024-02-26T00:18:49;1050.93;;;962.38;;
22060;SDS011;11194;48.092;-1.382;2024-02-26T00:21:15;1026.60;;;939.42;;
22060;SDS011;11194;48.092;-1.382;2024-02-26T00:23:41;1041.93;;;953.88;;
22060;SDS011;11194;48.092;-1.382;2024-02-26T00:26:07;1041.07;;;952.78;;
22060;SDS011;11194;48.092;-1.382;2024-02-26T00:28:34;1049.53;;;960.60;;
22060;SDS011;11194;48.092;-1.382;2024-02-26T00:31:00;1029.55;;;941.80;;
22060;SDS011;11194;48.092;-1.382;2024-02-26T00:33:26;1038.20;;;950.47;;
22060;SDS011;11194;48.092;-1.382;2024-02-26T00:35:52;1054.38;;;965.92;;
22060;SDS011;11194;48.092;-1.382;2024-02-26T00:38:18;1029.75;;;942.92;;
22060;SDS011;11194;48.092;-1.382;2024-02-26T00:40:44;1031.70;;;944.50;;
22060;SDS011;11194;48.092;-1.382;2024-02-26T00:43:10;1036.95;;;948.97;;
22060;SDS011;11194;48.092;-1.382;2024-02-26T00:45:36;1041.80;;;953.92;;
22060;SDS011;11194;48.092;-1.382;2024-02-26T00:48:02;1050.35;;;961.60;;
22060;SDS011;11194;48.092;-1.382;2024-02-26T00:50:36;1031.88;;;944.05;;
22060;SDS011;11194;48.092;-1.382;2024-02-26T00:53:02;1055.40;;;966.60;;
22060;SDS011;11194;48.092;-1.382;2024-02-26T00:55:28;1037.03;;;948.88;;
22060;SDS011;11194;48.092;-1.382;2024-02-26T00:57:54;1048.28;;;959.55;;
22060;SDS011;11194;48.092;-1.382;2024-02-26T01:00:20;1035.05;;;946.97;;
22060;SDS011;11194;48.092;-1.382;2024-02-26T01:02:46;1055.93;;;966.35;;
22060;SDS011;11194;48.092;-1.382;2024-02-26T01:05:13;1046.78;;;957.72;;
22060;SDS011;11194;48.092;-1.382;2024-02-26T01:07:39;1046.72;;;957.08;;
22060;SDS011;11194;48.092;-1.382;2024-02-26T01:10:06;1041.20;;;951.90;;
22060;SDS011;11194;48.092;-1.382;2024-02-26T01:12:35;1033.82;;;945.75;;
22060;SDS011;11194;48.092;-1.382;2024-02-26T01:15:02;1031.28;;;943.35;;
22060;SDS011;11194;48.092;-1.382;2024-02-26T01:17:28;1038.53;;;950.25;;
22060;SDS011;11194;48.092;-1.382;2024-02-26T01:19:54;1038.00;;;949.70;;
22060;SDS011;11194;48.092;-1.382;2024-02-26T01:22:20;1038.40;;;950.08;;
22060;SDS011;11194;48.092;-1.382;2024-02-26T01:24:47;1028.85;;;941.08;;
22060;SDS011;11194;48.092;-1.382;2024-02-26T01:27:13;1050.90;;;961.80;;
22060;SDS011;11194;48.092;-1.382;2024-02-26T01:29:40;1028.82;;;940.65;;
22060;SDS011;11194;48.092;-1.382;2024-02-26T01:32:06;1025.25;;;937.65;;
22060;SDS011;11194;48.092;-1.382;2024-02-26T01:34:32;1026.05;;;939.35;;
22060;SDS011;11194;48.092;-1.382;2024-02-26T01:36:58;1041.93;;;954.50;;
22060;SDS011;11194;48.092;-1.382;2024-02-26T01:39:25;1035.95;;;948.45;;
22060;SDS011;11194;48.092;-1.382;2024-02-26T01:41:54;1039.28;;;951.13;;
22060;SDS011;11194;48.092;-1.382;2024-02-26T01:44:20;1046.80;;;958.75;;
22060;SDS011;11194;48.092;-1.382;2024-02-26T01:46:46;1036.15;;;948.80;;
22060;SDS011;11194;48.092;-1.382;2024-02-26T01:49:12;1024.45;;;937.67;;
22060;SDS011;11194;48.092;-1.382;2024-02-26T01:51:39;1028.43;;;941.20;;
22060;SDS011;11194;48.092;-1.382;2024-02-26T01:54:05;1056.13;;;966.63;;
22060;SDS011;11194;48.092;-1.382;2024-02-26T01:56:33;1050.55;;;961.33;;
22060;SDS011;11194;48.092;-1.382;2024-02-26T01:59:01;1064.15;;;974.05;;
22060;SDS011;11194;48.092;-1.382;2024-02-26T02:01:31;1066.55;;;976.03;;
22060;SDS011;11194;48.092;-1.382;2024-02-26T02:03:58;1059.57;;;969.47;;
22060;SDS011;11194;48.092;-1.382;2024-02-26T02:06:24;1051.78;;;961.53;;
22060;SDS011;11194;48.092;-1.382;2024-02-26T02:08:51;1048.22;;;958.78;;
22060;SDS011;11194;48.092;-1.382;2024-02-26T02:11:19;1051.30;;;961.90;;
22060;SDS011;11194;48.092;-1.382;2024-02-26T02:13:45;1061.18;;;971.25;;
22060;SDS011;11194;48.092;-1.382;2024-02-26T02:16:11;1055.35;;;965.40;;
22060;SDS011;11194;48.092;-1.382;2024-02-26T02:18:37;1061.72;;;971.22;;
22060;SDS011;11194;48.092;-1.382;2024-02-26T02:21:03;1051.10;;;960.58;;
22060;SDS011;11194;48.092;-1.382;2024-02-26T02:23:29;1049.88;;;960.08;;
22060;SDS011;11194;48.092;-1.382;2024-02-26T02:25:56;1036.40;;;947.85;;
22060;SDS011;11194;48.092;-1.382;2024-02-26T02:28:23;1039.28;;;950.13;;
22060;SDS011;11194;48.092;-1.382;2024-02-26T02:30:51;1022.33;;;933.85;;
22060;SDS011;11194;48.092;-1.382;2024-02-26T02:33:17;1029.55;;;941.45;;
22060;SDS011;11194;48.092;-1.382;2024-02-26T02:35:43;1029.25;;;941.25;;
22060;SDS011;11194;48.092;-1.382;2024-02-26T02:38:09;1037.05;;;949.22;;
22060;SDS011;11194;48.092;-1.382;2024-02-26T02:40:35;1033.63;;;945.53;;
22060;SDS011;11194;48.092;-1.382;2024-02-26T02:43:01;1041.90;;;953.42;;
22060;SDS011;11194;48.092;-1.382;2024-02-26T02:45:28;1035.68;;;947.35;;
22060;SDS011;11194;48.092;-1.382;2024-02-26T02:47:54;1037.03;;;948.58;;
22060;SDS011;11194;48.092;-1.382;2024-02-26T02:50:20;1035.03;;;946.38;;
22060;SDS011;11194;48.092;-1.382;2024-02-26T02:52:46;1045.65;;;956.63;;
22060;SDS011;11194;48.092;-1.382;2024-02-26T02:55:13;1037.35;;;948.80;;
22060;SDS011;11194;48.092;-1.382;2024-02-26T02:57:39;1041.07;;;952.20;;
22060;SDS011;11194;48.092;-1.382;2024-02-26T03:00:09;1035.40;;;947.50;;
22060;SDS011;11194;48.092;-1.382;2024-02-26T03:02:35;1025.65;;;938.08;;
22060;SDS011;11194;48.092;-1.382;2024-02-26T03:05:02;1034.38;;;946.10;;
22060;SDS011;11194;48.092;-1.382;2024-02-26T03:07:28;1017.95;;;930.35;;
22060;SDS011;11194;48.092;-1.382;2024-02-26T03:09:54;1022.58;;;934.55;;
22060;SDS011;11194;48.092;-1.382;2024-02-26T03:12:20;1032.68;;;944.30;;
22060;SDS011;11194;48.092;-1.382;2024-02-26T03:14:46;1040.72;;;952.05;;
22060;SDS011;11194;48.092;-1.382;2024-02-26T03:17:12;1037.50;;;948.97;;
22060;SDS011;11194;48.092;-1.382;2024-02-26T03:19:38;1033.38;;;945.13;;
22060;SDS011;11194;48.092;-1.382;2024-02-26T03:22:04;1035.35;;;947.20;;
22060;SDS011;11194;48.092;-1.382;2024-02-26T03:24:30;1027.43;;;939.70;;
22060;SDS011;11194;48.092;-1.382;2024-02-26T03:26:56;1023.97;;;936.10;;
22060;SDS011;11194;48.092;-1.382;2024-02-26T03:29:22;1019.75;;;932.30;;
22060;SDS011;11194;48.092;-1.382;2024-02-26T03:31:48;1030.53;;;942.22;;
22060;SDS011;11194;48.092;-1.382;2024-02-26T03:34:14;1026.72;;;938.65;;
22060;SDS011;11194;48.092;-1.382;2024-02-26T03:36:42;1017.15;;;929.50;;
22060;SDS011;11194;48.092;-1.382;2024-02-26T03:39:08;1027.80;;;939.40;;
22060;SDS011;11194;48.092;-1.382;2024-02-26T03:41:34;1026.25;;;938.30;;
22060;SDS011;11194;48.092;-1.382;2024-02-26T03:44:01;1031.70;;;943.38;;
22060;SDS011;11194;48.092;-1.382;2024-02-26T03:46:27;1046.75;;;956.45;;
22060;SDS011;11194;48.092;-1.382;2024-02-26T03:48:53;1043.28;;;953.83;;
22060;SDS011;11194;48.092;-1.382;2024-02-26T03:51:19;1021.67;;;932.75;;
22060;SDS011;11194;48.092;-1.382;2024-02-26T03:53:45;1015.50;;;926.55;;
22060;SDS011;11194;48.092;-1.382;2024-02-26T03:56:11;1027.72;;;938.35;;
22060;SDS011;11194;48.092;-1.382;2024-02-26T03:58:38;1020.63;;;931.70;;
22060;SDS011;11194;48.092;-1.382;2024-02-26T04:01:06;1025.22;;;936.50;;
22060;SDS011;11194;48.092;-1.382;2024-02-26T04:03:33;1041.65;;;952.70;;
22060;SDS011;11194;48.092;-1.382;2024-02-26T04:05:59;1054.45;;;964.95;;
22060;SDS011;11194;48.092;-1.382;2024-02-26T04:08:25;1042.15;;;953.60;;
22060;SDS011;11194;48.092;-1.382;2024-02-26T04:10:51;1045.97;;;957.20;;
22060;SDS011;11194;48.092;-1.382;2024-02-26T04:13:17;1043.43;;;954.58;;
22060;SDS011;11194;48.092;-1.382;2024-02-26T04:15:43;1048.28;;;958.78;;
22060;SDS011;11194;48.092;-1.382;2024-02-26T04:18:09;1038.90;;;949.90;;
22060;SDS011;11194;48.092;-1.382;2024-02-26T04:20:36;1044.90;;;955.97;;
22060;SDS011;11194;48.092;-1.382;2024-02-26T04:23:02;1029.80;;;941.65;;
22060;SDS011;11194;48.092;-1.382;2024-02-26T04:25:28;1048.90;;;959.88;;
22060;SDS011;11194;48.092;-1.382;2024-02-26T04:27:54;1049.28;;;959.95;;
22060;SDS011;11194;48.092;-1.382;2024-02-26T04:30:20;1043.50;;;954.53;;
22060;SDS011;11194;48.092;-1.382;2024-02-26T04:32:46;1063.80;;;974.00;;
22060;SDS011;11194;48.092;-1.382;2024-02-26T04:35:12;1026.20;;;938.47;;
22060;SDS011;11194;48.092;-1.382;2024-02-26T04:37:38;1041.78;;;953.88;;
22060;SDS011;11194;48.092;-1.382;2024-02-26T04:40:05;1034.50;;;946.80;;
22060;SDS011;11194;48.092;-1.382;2024-02-26T04:42:31;1035.43;;;947.60;;
22060;SDS011;11194;48.092;-1.382;2024-02-26T04:44:57;1024.05;;;937.03;;
22060;SDS011;11194;48.092;-1.382;2024-02-26T04:47:23;1045.25;;;956.63;;
22060;SDS011;11194;48.092;-1.382;2024-02-26T04:49:49;1035.22;;;947.35;;
22060;SDS011;11194;48.092;-1.382;2024-02-26T04:52:15;1021.50;;;934.70;;
22060;SDS011;11194;48.092;-1.382;2024-02-26T04:54:41;1031.82;;;944.10;;
22060;SDS011;11194;48.092;-1.382;2024-02-26T04:57:07;1024.22;;;936.92;;
22060;SDS011;11194;48.092;-1.382;2024-02-26T04:59:33;1028.15;;;941.05;;
22060;SDS011;11194;48.092;-1.382;2024-02-26T05:01:59;1034.25;;;946.88;;
22060;SDS011;11194;48.092;-1.382;2024-02-26T05:04:26;1031.43;;;943.95;;
22060;SDS011;11194;48.092;-1.382;2024-02-26T05:06:52;1036.85;;;948.92;;
22060;SDS011;11194;48.092;-1.382;2024-02-26T05:09:18;1044.05;;;955.75;;
22060;SDS011;11194;48.092;-1.382;2024-02-26T05:11:45;1052.32;;;963.50;;
22060;SDS011;11194;48.092;-1.382;2024-02-26T05:14:11;1051.97;;;962.17;;
22060;SDS011;11194;48.092;-1.382;2024-02-26T05:16:37;1062.00;;;970.38;;
22060;SDS011;11194;48.092;-1.382;2024-02-26T05:19:03;1059.20;;;967.08;;
22060;SDS011;11194;48.092;-1.382;2024-02-26T05:21:30;1064.43;;;972.60;;
22060;SDS011;11194;48.092;-1.382;2024-02-26T05:23:56;1064.55;;;972.30;;
22060;SDS011;11194;48.092;-1.382;2024-02-26T05:26:23;1063.88;;;971.40;;
22060;SDS011;11194;48.092;-1.382;2024-02-26T05:28:49;1071.95;;;978.40;;
22060;SDS011;11194;48.092;-1.382;2024-02-26T05:31:15;1063.82;;;971.03;;
22060;SDS011;11194;48.092;-1.382;2024-02-26T05:33:41;1069.60;;;976.65;;
22060;SDS011;11194;48.092;-1.382;2024-02-26T05:36:08;1072.72;;;977.63;;
22060;SDS011;11194;48.092;-1.382;2024-02-26T05:38:34;1080.40;;;985.28;;
22060;SDS011;11194;48.092;-1.382;2024-02-26T05:41:00;1084.38;;;987.17;;
22060;SDS011;11194;48.092;-1.382;2024-02-26T05:43:27;1094.95;;;996.83;;
22060;SDS011;11194;48.092;-1.382;2024-02-26T05:45:53;1089.10;;;992.42;;
22060;SDS011;11194;48.092;-1.382;2024-02-26T05:48:19;1093.70;;;996.60;;
22060;SDS011;11194;48.092;-1.382;2024-02-26T05:50:45;1096.25;;;997.60;;
22060;SDS011;11194;48.092;-1.382;2024-02-26T05:53:12;1102.68;;;999.90;;
22060;SDS011;11194;48.092;-1.382;2024-02-26T05:55:38;1105.15;;;999.90;;
22060;SDS011;11194;48.092;-1.382;2024-02-26T05:58:04;1093.72;;;996.17;;
22060;SDS011;11194;48.092;-1.382;2024-02-26T06:00:30;1092.25;;;995.10;;
22060;SDS011;11194;48.092;-1.382;2024-02-26T06:02:57;1081.00;;;984.08;;
22060;SDS011;11194;48.092;-1.382;2024-02-26T06:05:23;1097.65;;;998.67;;
22060;SDS011;11194;48.092;-1.382;2024-02-26T06:07:49;1083.88;;;986.70;;
22060;SDS011;11194;48.092;-1.382;2024-02-26T06:10:15;1088.43;;;991.10;;
22060;SDS011;11194;48.092;-1.382;2024-02-26T06:12:41;1079.43;;;982.67;;
22060;SDS011;11194;48.092;-1.382;2024-02-26T06:15:07;1072.88;;;976.97;;
22060;SDS011;11194;48.092;-1.382;2024-02-26T06:17:34;1078.22;;;982.45;;
22060;SDS011;11194;48.092;-1.382;2024-02-26T06:20:00;1081.97;;;985.85;;
22060;SDS011;11194;48.092;-1.382;2024-02-26T06:22:26;1057.25;;;963.05;;
22060;SDS011;11194;48.092;-1.382;2024-02-26T06:24:52;1052.40;;;957.80;;
22060;SDS011;11194;48.092;-1.382;2024-02-26T06:27:19;1047.93;;;953.97;;
22060;SDS011;11194;48.092;-1.382;2024-02-26T06:29:46;1051.63;;;957.08;;
22060;SDS011;11194;48.092;-1.382;2024-02-26T06:32:13;1042.00;;;948.70;;
22060;SDS011;11194;48.092;-1.382;2024-02-26T06:34:39;1034.45;;;942.65;;
22060;SDS011;11194;48.092;-1.382;2024-02-26T06:37:07;1047.15;;;955.03;;
22060;SDS011;11194;48.092;-1.382;2024-02-26T06:39:33;1041.22;;;949.28;;
22060;SDS011;11194;48.092;-1.382;2024-02-26T06:41:59;1022.53;;;931.35;;
22060;SDS011;11194;48.092;-1.382;2024-02-26T06:44:27;1024.47;;;933.70;;
22060;SDS011;11194;48.092;-1.382;2024-02-26T06:46:59;1012.85;;;922.33;;
22060;SDS011;11194;48.092;-1.382;2024-02-26T06:49:25;1015.38;;;925.05;;
22060;SDS011;11194;48.092;-1.382;2024-02-26T06:51:51;983.72;;;895.33;;
22060;SDS011;11194;48.092;-1.382;2024-02-26T06:54:18;994.78;;;905.55;;
22060;SDS011;11194;48.092;-1.382;2024-02-26T06:56:44;983.05;;;897.30;;
22060;SDS011;11194;48.092;-1.382;2024-02-26T06:59:10;986.13;;;900.20;;
22060;SDS011;11194;48.092;-1.382;2024-02-26T07:01:36;982.13;;;896.85;;
22060;SDS011;11194;48.092;-1.382;2024-02-26T07:04:02;947.20;;;865.15;;
22060;SDS011;11194;48.092;-1.382;2024-02-26T07:06:28;930.33;;;850.35;;
22060;SDS011;11194;48.092;-1.382;2024-02-26T07:08:54;916.60;;;837.60;;
22060;SDS011;11194;48.092;-1.382;2024-02-26T07:11:20;900.08;;;823.53;;
22060;SDS011;11194;48.092;-1.382;2024-02-26T07:13:46;900.30;;;825.17;;
22060;SDS011;11194;48.092;-1.382;2024-02-26T07:16:14;857.25;;;785.35;;
22060;SDS011;11194;48.092;-1.382;2024-02-26T07:18:40;810.15;;;742.33;;
22060;SDS011;11194;48.092;-1.382;2024-02-26T07:21:06;824.00;;;755.75;;
22060;SDS011;11194;48.092;-1.382;2024-02-26T07:23:32;762.25;;;697.17;;
22060;SDS011;11194;48.092;-1.382;2024-02-26T07:25:59;741.17;;;678.85;;
22060;SDS011;11194;48.092;-1.382;2024-02-26T07:28:25;706.45;;;645.78;;
22060;SDS011;11194;48.092;-1.382;2024-02-26T07:30:51;737.03;;;675.65;;
22060;SDS011;11194;48.092;-1.382;2024-02-26T07:33:17;709.78;;;649.53;;
22060;SDS011;11194;48.092;-1.382;2024-02-26T07:35:43;701.17;;;641.78;;
22060;SDS011;11194;48.092;-1.382;2024-02-26T07:38:09;681.03;;;624.63;;
22060;SDS011;11194;48.092;-1.382;2024-02-26T07:40:35;702.95;;;644.95;;
22060;SDS011;11194;48.092;-1.382;2024-02-26T07:43:01;679.58;;;622.17;;
22060;SDS011;11194;48.092;-1.382;2024-02-26T07:45:27;668.72;;;612.38;;
22060;SDS011;11194;48.092;-1.382;2024-02-26T07:47:53;698.78;;;640.85;;
22060;SDS011;11194;48.092;-1.382;2024-02-26T07:50:19;707.78;;;649.83;;
22060;SDS011;11194;48.092;-1.382;2024-02-26T07:52:45;692.28;;;636.72;;
22060;SDS011;11194;48.092;-1.382;2024-02-26T07:55:11;691.78;;;636.97;;
22060;SDS011;11194;48.092;-1.382;2024-02-26T07:57:37;696.75;;;642.15;;
22060;SDS011;11194;48.092;-1.382;2024-02-26T08:00:04;686.28;;;635.20;;
22060;SDS011;11194;48.092;-1.382;2024-02-26T08:02:34;666.17;;;616.83;;
22060;SDS011;11194;48.092;-1.382;2024-02-26T08:05:00;675.47;;;625.78;;
22060;SDS011;11194;48.092;-1.382;2024-02-26T08:07:26;672.65;;;623.92;;
22060;SDS011;11194;48.092;-1.382;2024-02-26T08:09:53;663.97;;;614.30;;
22060;SDS011;11194;48.092;-1.382;2024-02-26T08:12:19;646.60;;;597.38;;
22060;SDS011;11194;48.092;-1.382;2024-02-26T08:14:45;685.30;;;634.50;;
22060;SDS011;11194;48.092;-1.382;2024-02-26T08:17:11;677.65;;;628.03;;
22060;SDS011;11194;48.092;-1.382;2024-02-26T08:19:37;659.53;;;612.28;;
22060;SDS011;11194;48.092;-1.382;2024-02-26T08:22:04;656.63;;;610.63;;
22060;SDS011;11194;48.092;-1.382;2024-02-26T08:24:30;670.53;;;623.25;;
22060;SDS011;11194;48.092;-1.382;2024-02-26T08:26:56;660.90;;;614.42;;
22060;SDS011;11194;48.092;-1.382;2024-02-26T08:29:22;649.65;;;604.28;;
22060;SDS011;11194;48.092;-1.382;2024-02-26T08:31:48;646.97;;;603.88;;
22060;SDS011;11194;48.092;-1.382;2024-02-26T08:34:14;640.47;;;601.42;;
22060;SDS011;11194;48.092;-1.382;2024-02-26T08:36:40;623.35;;;587.28;;
22060;SDS011;11194;48.092;-1.382;2024-02-26T08:39:08;630.15;;;593.63;;
22060;SDS011;11194;48.092;-1.382;2024-02-26T08:41:34;601.63;;;566.92;;
22060;SDS011;11194;48.092;-1.382;2024-02-26T08:44:00;598.72;;;564.63;;
22060;SDS011;11194;48.092;-1.382;2024-02-26T08:46:26;615.25;;;579.67;;
22060;SDS011;11194;48.092;-1.382;2024-02-26T08:48:52;615.38;;;579.63;;
22060;SDS011;11194;48.092;-1.382;2024-02-26T08:51:18;630.63;;;592.22;;
22060;SDS011;11194;48.092;-1.382;2024-02-26T08:53:44;619.75;;;582.40;;
22060;SDS011;11194;48.092;-1.382;2024-02-26T08:56:10;611.35;;;576.33;;
22060;SDS011;11194;48.092;-1.382;2024-02-26T08:58:41;606.35;;;573.50;;
22060;SDS011;11194;48.092;-1.382;2024-02-26T09:01:07;622.70;;;587.55;;
22060;SDS011;11194;48.092;-1.382;2024-02-26T09:03:33;625.92;;;589.55;;
22060;SDS011;11194;48.092;-1.382;2024-02-26T09:05:59;633.03;;;595.30;;
22060;SDS011;11194;48.092;-1.382;2024-02-26T09:08:25;628.38;;;592.30;;
22060;SDS011;11194;48.092;-1.382;2024-02-26T09:10:51;627.10;;;590.83;;
22060;SDS011;11194;48.092;-1.382;2024-02-26T09:13:18;629.28;;;593.28;;
22060;SDS011;11194;48.092;-1.382;2024-02-26T09:15:44;602.10;;;569.22;;
22060;SDS011;11194;48.092;-1.382;2024-02-26T09:18:10;637.45;;;599.05;;
22060;SDS011;11194;48.092;-1.382;2024-02-26T09:20:36;594.42;;;562.30;;
22060;SDS011;11194;48.092;-1.382;2024-02-26T09:23:03;612.03;;;578.15;;
22060;SDS011;11194;48.092;-1.382;2024-02-26T09:25:29;618.65;;;584.20;;
22060;SDS011;11194;48.092;-1.382;2024-02-26T09:27:55;600.63;;;567.65;;
22060;SDS011;11194;48.092;-1.382;2024-02-26T09:30:21;612.63;;;578.90;;
22060;SDS011;11194;48.092;-1.382;2024-02-26T09:32:47;608.70;;;574.63;;
22060;SDS011;11194;48.092;-1.382;2024-02-26T09:35:13;615.65;;;580.88;;
22060;SDS011;11194;48.092;-1.382;2024-02-26T09:37:40;597.47;;;564.35;;
22060;SDS011;11194;48.092;-1.382;2024-02-26T09:40:07;582.70;;;551.90;;
22060;SDS011;11194;48.092;-1.382;2024-02-26T09:42:36;587.08;;;556.38;;
22060;SDS011;11194;48.092;-1.382;2024-02-26T09:45:05;547.50;;;519.88;;
22060;SDS011;11194;48.092;-1.382;2024-02-26T09:47:33;509.75;;;484.02;;
22060;SDS011;11194;48.092;-1.382;2024-02-26T09:50:01;534.67;;;506.80;;
22060;SDS011;11194;48.092;-1.382;2024-02-26T09:52:28;560.05;;;529.72;;
22060;SDS011;11194;48.092;-1.382;2024-02-26T09:54:55;561.17;;;530.17;;
22060;SDS011;11194;48.092;-1.382;2024-02-26T09:57:21;560.22;;;529.13;;
22060;SDS011;11194;48.092;-1.382;2024-02-26T09:59:49;543.20;;;514.80;;
22060;SDS011;11194;48.092;-1.382;2024-02-26T10:02:17;558.53;;;528.83;;
22060;SDS011;11194;48.092;-1.382;2024-02-26T10:04:43;548.60;;;520.78;;
22060;SDS011;11194;48.092;-1.382;2024-02-26T10:07:11;534.53;;;508.17;;
22060;SDS011;11194;48.092;-1.382;2024-02-26T10:09:37;537.67;;;510.77;;
22060;SDS011;11194;48.092;-1.382;2024-02-26T10:12:04;504.23;;;480.90;;
22060;SDS011;11194;48.092;-1.382;2024-02-26T10:14:30;529.90;;;504.15;;
22060;SDS011;11194;48.092;-1.382;2024-02-26T10:16:56;534.88;;;509.23;;
22060;SDS011;11194;48.092;-1.382;2024-02-26T10:19:26;519.30;;;494.83;;
22060;SDS011;11194;48.092;-1.382;2024-02-26T10:21:56;548.83;;;520.50;;
22060;SDS011;11194;48.092;-1.382;2024-02-26T10:24:23;534.65;;;508.33;;
22060;SDS011;11194;48.092;-1.382;2024-02-26T10:26:50;530.10;;;503.63;;
22060;SDS011;11194;48.092;-1.382;2024-02-26T10:29:16;517.10;;;491.45;;
22060;SDS011;11194;48.092;-1.382;2024-02-26T10:31:43;497.48;;;474.92;;
22060;SDS011;11194;48.092;-1.382;2024-02-26T10:34:09;427.17;;;409.85;;
22060;SDS011;11194;48.092;-1.382;2024-02-26T10:36:35;465.80;;;445.83;;
22060;SDS011;11194;48.092;-1.382;2024-02-26T10:39:04;416.38;;;399.50;;
22060;SDS011;11194;48.092;-1.382;2024-02-26T10:41:32;416.45;;;399.73;;
22060;SDS011;11194;48.092;-1.382;2024-02-26T10:43:58;395.75;;;380.67;;
22060;SDS011;11194;48.092;-1.382;2024-02-26T10:46:25;373.25;;;359.23;;
22060;SDS011;11194;48.092;-1.382;2024-02-26T10:48:51;420.20;;;403.33;;
22060;SDS011;11194;48.092;-1.382;2024-02-26T10:51:20;432.75;;;415.25;;
22060;SDS011;11194;48.092;-1.382;2024-02-26T10:53:46;417.42;;;400.98;;
22060;SDS011;11194;48.092;-1.382;2024-02-26T10:56:13;401.25;;;385.75;;
22060;SDS011;11194;48.092;-1.382;2024-02-26T10:58:41;322.85;;;311.42;;
22060;SDS011;11194;48.092;-1.382;2024-02-26T11:01:07;318.23;;;306.92;;
22060;SDS011;11194;48.092;-1.382;2024-02-26T11:03:34;293.90;;;283.77;;
22060;SDS011;11194;48.092;-1.382;2024-02-26T11:06:01;366.92;;;353.45;;
22060;SDS011;11194;48.092;-1.382;2024-02-26T11:08:29;379.75;;;365.50;;
22060;SDS011;11194;48.092;-1.382;2024-02-26T11:10:56;426.98;;;410.58;;
22060;SDS011;11194;48.092;-1.382;2024-02-26T11:13:23;402.55;;;387.35;;
22060;SDS011;11194;48.092;-1.382;2024-02-26T11:15:50;378.67;;;364.75;;
22060;SDS011;11194;48.092;-1.382;2024-02-26T11:18:18;401.85;;;386.90;;
22060;SDS011;11194;48.092;-1.382;2024-02-26T11:20:46;408.02;;;392.88;;
22060;SDS011;11194;48.092;-1.382;2024-02-26T11:23:13;430.30;;;413.58;;
22060;SDS011;11194;48.092;-1.382;2024-02-26T11:25:40;394.23;;;379.60;;
22060;SDS011;11194;48.092;-1.382;2024-02-26T11:28:09;382.40;;;368.25;;
22060;SDS011;11194;48.092;-1.382;2024-02-26T11:30:38;513.53;;;490.45;;
22060;SDS011;11194;48.092;-1.382;2024-02-26T11:33:08;662.33;;;627.67;;
22060;SDS011;11194;48.092;-1.382;2024-02-26T11:35:37;702.08;;;662.85;;
22060;SDS011;11194;48.092;-1.382;2024-02-26T11:38:03;683.55;;;647.60;;
22060;SDS011;11194;48.092;-1.382;2024-02-26T11:40:31;685.40;;;647.03;;
22060;SDS011;11194;48.092;-1.382;2024-02-26T11:42:57;710.03;;;665.83;;
22060;SDS011;11194;48.092;-1.382;2024-02-26T11:48:15;722.38;;;675.20;;
22060;SDS011;11194;48.092;-1.382;2024-02-26T11:50:43;713.75;;;665.00;;
22060;SDS011;11194;48.092;-1.382;2024-02-26T11:53:28;723.92;;;677.55;;
22060;SDS011;11194;48.092;-1.382;2024-02-26T11:58:40;670.45;;;636.42;;
22060;SDS011;11194;48.092;-1.382;2024-02-26T12:03:53;658.22;;;625.33;;
22060;SDS011;11194;48.092;-1.382;2024-02-26T12:06:19;610.03;;;582.63;;
22060;SDS011;11194;48.092;-1.382;2024-02-26T12:08:46;639.85;;;609.50;;
22060;SDS011;11194;48.092;-1.382;2024-02-26T12:11:15;624.88;;;596.67;;
22060;SDS011;11194;48.092;-1.382;2024-02-26T12:13:41;588.97;;;564.10;;
22060;SDS011;11194;48.092;-1.382;2024-02-26T12:16:08;604.00;;;577.20;;
22060;SDS011;11194;48.092;-1.382;2024-02-26T12:18:34;619.22;;;591.92;;
22060;SDS011;11194;48.092;-1.382;2024-02-26T12:21:00;675.40;;;641.10;;
22060;SDS011;11194;48.092;-1.382;2024-02-26T12:23:27;708.80;;;669.95;;
22060;SDS011;11194;48.092;-1.382;2024-02-26T12:25:53;718.65;;;677.10;;
22060;SDS011;11194;48.092;-1.382;2024-02-26T12:28:20;612.55;;;583.55;;
22060;SDS011;11194;48.092;-1.382;2024-02-26T12:30:46;550.95;;;528.00;;
22060;SDS011;11194;48.092;-1.382;2024-02-26T12:33:12;543.67;;;521.60;;
22060;SDS011;11194;48.092;-1.382;2024-02-26T12:35:38;579.20;;;554.97;;
22060;SDS011;11194;48.092;-1.382;2024-02-26T12:38:04;536.85;;;515.13;;
22060;SDS011;11194;48.092;-1.382;2024-02-26T12:40:31;554.80;;;532.03;;
22060;SDS011;11194;48.092;-1.382;2024-02-26T12:42:57;488.73;;;470.42;;
22060;SDS011;11194;48.092;-1.382;2024-02-26T12:45:24;515.30;;;495.10;;
22060;SDS011;11194;48.092;-1.382;2024-02-26T12:47:51;624.17;;;596.30;;
22060;SDS011;11194;48.092;-1.382;2024-02-26T12:50:17;629.53;;;600.63;;
22060;SDS011;11194;48.092;-1.382;2024-02-26T12:52:45;616.72;;;588.15;;
22060;SDS011;11194;48.092;-1.382;2024-02-26T12:55:15;643.13;;;611.95;;
22060;SDS011;11194;48.092;-1.382;2024-02-26T12:57:42;632.38;;;600.90;;
22060;SDS011;11194;48.092;-1.382;2024-02-26T13:00:09;559.38;;;533.15;;
22060;SDS011;11194;48.092;-1.382;2024-02-26T13:02:37;522.13;;;495.65;;
22060;SDS011;11194;48.092;-1.382;2024-02-26T13:05:03;527.13;;;501.45;;
22060;SDS011;11194;48.092;-1.382;2024-02-26T13:07:30;539.33;;;513.40;;
22060;SDS011;11194;48.092;-1.382;2024-02-26T13:09:56;544.15;;;516.97;;
22060;SDS011;11194;48.092;-1.382;2024-02-26T13:12:22;519.80;;;495.50;;
22060;SDS011;11194;48.092;-1.382;2024-02-26T13:14:58;513.70;;;489.35;;
22060;SDS011;11194;48.092;-1.382;2024-02-26T13:17:24;532.45;;;505.60;;
22060;SDS011;11194;48.092;-1.382;2024-02-26T13:19:52;550.05;;;519.45;;
22060;SDS011;11194;48.092;-1.382;2024-02-26T13:22:20;543.55;;;513.58;;
22060;SDS011;11194;48.092;-1.382;2024-02-26T13:24:56;561.83;;;530.80;;
22060;SDS011;11194;48.092;-1.382;2024-02-26T13:27:23;572.67;;;539.30;;
22060;SDS011;11194;48.092;-1.382;2024-02-26T13:32:35;565.88;;;533.22;;
22060;SDS011;11194;48.092;-1.382;2024-02-26T13:35:08;568.90;;;534.58;;
22060;SDS011;11194;48.092;-1.382;2024-02-26T13:37:35;544.92;;;513.80;;
22060;SDS011;11194;48.092;-1.382;2024-02-26T13:40:09;668.30;;;622.33;;
22060;SDS011;11194;48.092;-1.382;2024-02-26T13:42:38;683.45;;;634.70;;
22060;SDS011;11194;48.092;-1.382;2024-02-26T13:45:04;661.15;;;615.88;;
22060;SDS011;11194;48.092;-1.382;2024-02-26T13:47:34;660.78;;;615.67;;